Sunday, November 17, 2019, 3:43 PM EST
Back to Local

KISO, Kinston, Kinston Regional Jetport At Stallings Field

Location: Kinston, NC, United States Lat: 35.333
Local Time: 3:43 PM EST (20:43 GMT) Lon: -77.617
Time Zone: US/Eastern Elev: 95 ft

Show me the last for .
Show Coded

Time T Td Feel RH Dir Speed Gust Alt SLP Vis Weather Sky Remarks
2019-11-17 14:56 52 45 - 76 10° 15 24 29.93 - 10 OVC017 None
2019-11-17 13:56 52 45 - 76 360° 15 24 29.93 - 10 OVC017 None
2019-11-17 12:56 50 43 43 76 10° 18 24 29.95 - 10 OVC017 None
2019-11-17 11:56 48 43 40 81 10° 15 24 29.97 - 10 OVC017 None
2019-11-17 10:56 48 43 40 81 10° 16 29 29.99 - 10 OVC015 None
2019-11-17 09:56 48 41 40 76 360° 18 30 30.01 - 10 OVC015 None
2019-11-17 08:56 46 41 38 81 10° 20 26 30.02 - 10 OVC013 None
2019-11-17 07:56 45 39 37 81 10° 16 - 30.01 - 10 OVC013 None
2019-11-17 06:56 45 39 36 81 10° 16 23 30.00 - 10 OVC013 None
2019-11-17 06:25 45 39 35 81 10° 16 26 29.99 - 10 OVC013 None
2019-11-17 06:15 44 39 34 84 360° 16 26 29.99 - 10 OVC013 None
2019-11-17 05:55 44 39 34 84 360° 17 25 29.99 - 10 OVC013 None
2019-11-17 05:35 44 39 33 84 360° 21 29 29.98 - 10 OVC013 None
2019-11-17 05:15 43 39 33 85 360° 18 29 29.99 - 10 OVC013 None
2019-11-17 04:55 44 39 33 84 360° 21 30 29.98 - 10 OVC013 None
2019-11-17 04:35 44 39 34 84 360° 23 28 29.99 - 10 OVC013 None
2019-11-17 04:15 44 39 34 84 360° 21 26 29.99 - 10 OVC013 None
2019-11-17 03:55 44 40 34 84 360° 21 28 29.99 - 10 OVC013 None
2019-11-17 03:35 44 40 35 85 360° 20 26 29.99 - 10 OVC013 None
2019-11-17 03:15 45 40 35 84 360° 17 28 29.99 - 10 OVC013 None
2019-11-17 02:55 45 41 36 85 360° 20 28 29.99 - 10 OVC013 None
2019-11-17 02:35 45 41 36 85 10° 18 28 29.99 - 10 OVC013 None
2019-11-17 02:15 45 41 36 85 10° 17 25 29.99 - 10 OVC013 None
2019-11-17 01:55 45 40 36 85 10° 15 24 30.00 - 10 OVC013 None
2019-11-17 01:35 45 40 36 84 360° 17 22 30.00 - 10 OVC013 None
2019-11-17 01:15 45 40 36 84 10° 18 26 30.00 - 10 OVC015 None
2019-11-17 00:55 45 40 36 84 10° 17 25 30.00 - 10 OVC015 6-hr Precip Total (1am): 0.05"
6-hr Min Temp (1am): 44.6°F
6-hr Max Temp (1am): 45.9°F
24-hr Min Temp (1am): 44.6°F
24-hr Max Temp (1am): 48.2°F
2019-11-17 00:35 45 40 36 84 10° 20 26 30.01 - 10 OVC015 None
2019-11-17 00:15 45 40 35 84 360° 21 29 30.02 - 10 OVC015 None
2019-11-16 23:55 45 41 35 85 360° 16 29 30.02 - 10 OVC017 None
2019-11-16 23:35 45 40 36 84 360° 18 25 30.02 - 10 -DZ OVC017 None
2019-11-16 23:15 45 40 36 83 360° 18 26 30.04 - 10 -DZ OVC017 None
2019-11-16 22:55 45 40 36 82 10° 20 29 30.05 - 10 DZ OVC019 None
2019-11-16 22:35 46 40 37 81 10° 15 25 30.05 - 10 OVC019 None
2019-11-16 22:15 45 40 36 81 10° 15 24 30.06 - 10 OVC019 None
2019-11-16 21:55 45 40 36 82 360° 17 25 30.05 - 10 OVC019 6-hr Precip Total (10pm): 0.05"
2019-11-16 20:56 45 41 34 87 20° 13 36 30.04 - 10 OVC019 None
2019-11-16 19:56 45 41 35 87 20° 15 25 30.05 - 10 OVC019 None
2019-11-16 18:56 46 41 37 81 30° 16 31 30.04 - 10 OVC019 None
2019-11-16 17:56 45 41 35 87 20° 20 30 30.03 - 10 OVC017 None
2019-11-16 16:56 45 41 34 87 20° 21 33 30.04 - 10 OVC013 None
2019-11-16 15:56 46 43 37 87 20° 22 33 30.05 - 10 OVC013 None

Support USWX by starting your Amazon purchase here.